createdAt,value
2022-09-15T00:01:02.060Z,2.10
2022-09-15T00:03:28.976Z,2.10
2022-09-15T00:05:55.674Z,1.48
2022-09-15T00:08:22.995Z,1.65
2022-09-15T00:10:55.813Z,1.83
2022-09-15T00:13:22.748Z,1.33
2022-09-15T00:15:49.383Z,1.70
2022-09-15T00:18:16.239Z,1.65
2022-09-15T00:20:43.797Z,1.60
2022-09-15T00:23:11.538Z,1.80
2022-09-15T00:25:48.193Z,1.48
2022-09-15T00:28:15.580Z,1.30
2022-09-15T00:30:46.230Z,1.33
2022-09-15T00:33:13.810Z,1.90
2022-09-15T00:35:41.489Z,1.70
2022-09-15T00:38:08.881Z,1.77
2022-09-15T00:40:43.532Z,1.50
2022-09-15T00:43:11.056Z,1.80
2022-09-15T00:45:37.992Z,1.35
2022-09-15T00:48:05.495Z,1.73
2022-09-15T00:50:32.937Z,1.77
2022-09-15T00:53:01.009Z,1.85
2022-09-15T00:55:30.567Z,1.90
2022-09-15T00:57:59.562Z,1.80
2022-09-15T01:00:28.249Z,2.00
2022-09-15T01:02:55.675Z,2.25
2022-09-15T01:05:24.241Z,1.80
2022-09-15T01:07:56.972Z,2.10
2022-09-15T01:10:26.080Z,1.80
2022-09-15T01:12:57.540Z,1.83
2022-09-15T01:15:26.241Z,2.70
2022-09-15T01:17:52.761Z,1.52
2022-09-15T01:20:22.488Z,1.42
2022-09-15T01:23:04.266Z,1.55
2022-09-15T01:25:36.941Z,1.40
2022-09-15T01:28:15.826Z,1.50
2022-09-15T01:30:46.846Z,1.42
2022-09-15T01:33:13.422Z,1.25
2022-09-15T01:35:51.862Z,1.20
2022-09-15T01:38:25.740Z,1.50
2022-09-15T01:40:59.167Z,1.30
2022-09-15T01:43:26.598Z,1.50
2022-09-15T01:45:53.375Z,0.82
2022-09-15T01:48:21.153Z,0.90
2022-09-15T01:50:49.878Z,1.10
2022-09-15T01:53:17.984Z,1.00
2022-09-15T01:55:53.080Z,1.00
2022-09-15T01:58:20.184Z,1.20
2022-09-15T02:00:49.759Z,1.10
2022-09-15T02:03:45.808Z,1.27
2022-09-15T02:06:38.026Z,0.95
2022-09-15T02:09:09.240Z,0.90
2022-09-15T02:11:36.812Z,0.95
2022-09-15T02:14:21.975Z,0.70
2022-09-15T02:16:50.177Z,0.57
2022-09-15T02:19:18.791Z,0.82
2022-09-15T02:21:45.623Z,1.05
2022-09-15T02:24:14.435Z,0.80
2022-09-15T02:26:42.579Z,0.60
2022-09-15T02:29:13.786Z,0.82
2022-09-15T02:31:41.598Z,0.73
2022-09-15T02:34:11.226Z,0.85
2022-09-15T02:36:38.017Z,0.90
2022-09-15T02:39:07.418Z,0.90
2022-09-15T02:41:35.433Z,0.80
2022-09-15T02:44:02.313Z,0.88
2022-09-15T02:46:28.997Z,0.63
2022-09-15T02:48:57.168Z,0.88
2022-09-15T02:51:27.433Z,0.90
2022-09-15T02:53:54.819Z,0.95
2022-09-15T02:56:21.851Z,1.20
2022-09-15T02:58:48.521Z,1.00
2022-09-15T03:01:15.912Z,1.40
2022-09-15T03:03:43.858Z,1.10
2022-09-15T03:06:17.010Z,1.25
2022-09-15T03:08:54.882Z,0.98
2022-09-15T03:11:22.568Z,1.10
2022-09-15T03:13:53.127Z,1.13
2022-09-15T03:16:19.854Z,1.13
2022-09-15T03:18:46.979Z,1.30
2022-09-15T03:21:14.897Z,1.15
2022-09-15T03:23:42.385Z,1.20
2022-09-15T03:26:10.577Z,0.90
2022-09-15T03:28:37.817Z,1.10
2022-09-15T03:31:04.826Z,1.00
2022-09-15T03:33:31.879Z,0.95
2022-09-15T03:35:58.659Z,1.02
2022-09-15T03:38:25.754Z,1.02
2022-09-15T03:41:03.235Z,1.00
2022-09-15T03:43:30.859Z,0.80
2022-09-15T03:45:57.947Z,0.80
2022-09-15T03:48:25.088Z,0.65
2022-09-15T03:50:51.912Z,0.70
2022-09-15T03:53:18.747Z,0.80
2022-09-15T03:55:45.699Z,0.60
2022-09-15T03:58:12.877Z,0.70
2022-09-15T04:00:40.904Z,0.70
2022-09-15T04:03:07.503Z,0.63
2022-09-15T04:05:34.300Z,0.70
2022-09-15T04:08:01.033Z,0.60
2022-09-15T04:10:27.780Z,0.70
2022-09-15T04:12:54.438Z,0.50
2022-09-15T04:15:23.760Z,0.70
2022-09-15T04:17:50.455Z,0.70
2022-09-15T04:20:17.488Z,0.60
2022-09-15T04:22:44.931Z,0.80
2022-09-15T04:25:11.958Z,0.63
2022-09-15T04:27:38.803Z,0.65
2022-09-15T04:30:06.416Z,0.90
2022-09-15T04:32:33.076Z,0.70
2022-09-15T04:34:59.778Z,0.63
2022-09-15T04:37:26.582Z,0.70
2022-09-15T04:39:53.661Z,0.70
2022-09-15T04:42:21.844Z,0.50
2022-09-15T04:44:48.447Z,0.60
2022-09-15T04:47:15.166Z,0.57
2022-09-15T04:49:41.756Z,0.70
2022-09-15T04:52:09.884Z,0.70
2022-09-15T04:54:36.932Z,0.70
2022-09-15T04:57:03.648Z,0.80
2022-09-15T04:59:30.247Z,0.60
2022-09-15T05:01:57.233Z,0.80
2022-09-15T05:04:23.847Z,0.93
2022-09-15T05:06:50.447Z,0.77
2022-09-15T05:09:17.088Z,0.52
2022-09-15T05:11:43.617Z,0.52
2022-09-15T05:14:10.495Z,0.60
2022-09-15T05:16:37.497Z,0.60
2022-09-15T05:19:04.871Z,0.73
2022-09-15T05:21:32.183Z,0.75
2022-09-15T05:23:58.760Z,0.60
2022-09-15T05:26:28.288Z,0.50
2022-09-15T05:28:55.668Z,0.60
2022-09-15T05:31:23.495Z,0.90
2022-09-15T05:33:50.841Z,0.55
2022-09-15T05:36:19.345Z,0.88
2022-09-15T05:38:45.982Z,0.45
2022-09-15T05:41:18.946Z,0.60
2022-09-15T05:43:46.406Z,0.57
2022-09-15T05:46:13.261Z,0.70
2022-09-15T05:48:40.063Z,0.90
2022-09-15T05:51:07.129Z,0.85
2022-09-15T05:53:34.917Z,0.80
2022-09-15T05:56:03.271Z,0.50
2022-09-15T05:58:30.627Z,0.60
2022-09-15T06:00:57.654Z,0.57
2022-09-15T06:03:28.681Z,0.50
2022-09-15T06:06:00.672Z,0.60
2022-09-15T06:08:32.023Z,0.60
2022-09-15T06:11:02.950Z,0.68
2022-09-15T06:13:29.540Z,0.75
2022-09-15T06:16:00.558Z,0.77
2022-09-15T06:18:27.260Z,0.55
2022-09-15T06:20:53.863Z,0.60
2022-09-15T06:23:20.463Z,0.70
2022-09-15T06:25:47.023Z,0.65
2022-09-15T06:28:13.586Z,0.80
2022-09-15T06:30:40.339Z,0.70
2022-09-15T06:33:07.077Z,0.80
2022-09-15T06:35:33.601Z,0.57
2022-09-15T06:38:00.254Z,0.80
2022-09-15T06:40:27.024Z,0.88
2022-09-15T06:42:57.275Z,1.00
2022-09-15T06:45:23.823Z,0.80
2022-09-15T06:48:02.242Z,0.63
2022-09-15T06:50:38.604Z,0.52
2022-09-15T06:53:05.168Z,0.82
2022-09-15T06:55:31.892Z,0.80
2022-09-15T06:57:58.494Z,0.80
2022-09-15T07:00:25.865Z,0.93
2022-09-15T07:02:55.292Z,0.90
2022-09-15T07:05:21.997Z,1.05
2022-09-15T07:07:48.562Z,0.95
2022-09-15T07:10:15.030Z,0.80
2022-09-15T07:12:41.543Z,0.80
2022-09-15T07:15:08.545Z,0.88
2022-09-15T07:17:35.095Z,1.02
2022-09-15T07:20:02.316Z,1.00
2022-09-15T07:22:29.024Z,0.90
2022-09-15T07:24:55.661Z,0.65
2022-09-15T07:27:26.316Z,0.80
2022-09-15T07:29:52.902Z,0.60
2022-09-15T07:32:19.490Z,0.80
2022-09-15T07:34:46.880Z,0.73
2022-09-15T07:37:13.587Z,0.88
2022-09-15T07:39:40.115Z,0.75
2022-09-15T07:42:06.718Z,0.63
2022-09-15T07:44:33.277Z,0.60
2022-09-15T07:46:59.867Z,0.57
2022-09-15T07:49:26.401Z,0.65
2022-09-15T07:51:52.902Z,0.60
2022-09-15T07:54:22.671Z,0.60
2022-09-15T07:56:49.733Z,0.50
2022-09-15T07:59:16.334Z,0.63
2022-09-15T08:01:42.943Z,0.70
2022-09-15T08:04:09.580Z,0.68
2022-09-15T08:06:38.808Z,0.80
2022-09-15T08:09:05.748Z,0.88
2022-09-15T08:11:32.569Z,1.05
2022-09-15T08:14:01.260Z,0.70
2022-09-15T08:16:28.182Z,1.02
2022-09-15T08:18:55.378Z,0.95
2022-09-15T08:21:22.310Z,1.50
2022-09-15T08:23:52.694Z,1.10
2022-09-15T08:26:19.330Z,0.80
2022-09-15T08:28:46.111Z,1.65
2022-09-15T08:31:13.781Z,1.42
2022-09-15T08:33:44.754Z,1.05
2022-09-15T08:36:12.229Z,1.33
2022-09-15T08:38:40.591Z,2.10
2022-09-15T08:41:10.891Z,1.80
2022-09-15T08:44:03.735Z,1.52
2022-09-15T08:46:41.545Z,1.70
2022-09-15T08:49:13.350Z,1.90
2022-09-15T08:51:47.042Z,1.67
2022-09-15T08:54:20.680Z,1.75
2022-09-15T08:56:48.421Z,1.45
2022-09-15T08:59:16.350Z,1.63
2022-09-15T09:02:05.486Z,1.30
2022-09-15T09:04:38.426Z,1.42
2022-09-15T09:07:20.077Z,1.63
2022-09-15T09:10:03.716Z,1.90
2022-09-15T09:12:45.737Z,1.75
2022-09-15T09:15:24.972Z,2.13
2022-09-15T09:18:05.363Z,2.00
2022-09-15T09:20:43.457Z,1.58
2022-09-15T09:23:13.676Z,1.42
2022-09-15T09:25:41.712Z,1.77
2022-09-15T09:28:18.102Z,1.73
2022-09-15T09:30:44.822Z,1.80
2022-09-15T09:33:21.887Z,2.08
2022-09-15T09:35:52.612Z,2.13
2022-09-15T09:38:26.523Z,2.00
2022-09-15T09:40:53.262Z,1.90
2022-09-15T09:43:19.892Z,2.08
2022-09-15T09:45:46.774Z,1.63
2022-09-15T09:48:20.749Z,2.35
2022-09-15T09:50:48.129Z,1.80
2022-09-15T09:53:18.395Z,1.70
2022-09-15T09:55:46.135Z,1.48
2022-09-15T09:58:14.683Z,2.30
2022-09-15T10:00:41.338Z,1.80
2022-09-15T10:03:17.004Z,1.80
2022-09-15T10:05:44.200Z,2.40
2022-09-15T10:08:17.979Z,2.22
2022-09-15T10:10:52.205Z,2.35
2022-09-15T10:13:18.941Z,2.03
2022-09-15T10:15:50.664Z,2.33
2022-09-15T10:18:32.343Z,1.52
2022-09-15T10:20:59.907Z,2.80
2022-09-15T10:23:27.923Z,2.13
2022-09-15T10:25:59.562Z,2.50
2022-09-15T10:28:27.381Z,2.17
2022-09-15T10:31:14.294Z,2.53
2022-09-15T10:33:50.660Z,2.33
2022-09-15T10:36:28.507Z,2.13
2022-09-15T10:39:04.539Z,1.92
2022-09-15T10:41:31.798Z,2.70
2022-09-15T10:44:02.267Z,2.10
2022-09-15T10:46:39.554Z,1.73
2022-09-15T10:49:06.165Z,1.90
2022-09-15T10:51:39.342Z,2.20
2022-09-15T10:54:24.132Z,1.90
2022-09-15T10:56:55.867Z,2.08
2022-09-15T10:59:43.577Z,1.90
2022-09-15T11:02:16.351Z,2.40
2022-09-15T11:04:55.478Z,2.60
2022-09-15T11:07:33.791Z,1.70
2022-09-15T11:10:10.557Z,1.80
2022-09-15T11:12:43.618Z,1.63
2022-09-15T11:15:11.568Z,2.22
2022-09-15T11:17:51.179Z,2.33
2022-09-15T11:20:23.528Z,3.15
2022-09-15T11:22:55.644Z,1.80
2022-09-15T11:25:27.184Z,2.17
2022-09-15T11:28:20.025Z,2.03
2022-09-15T11:30:51.991Z,2.40
2022-09-15T11:33:21.295Z,2.05
2022-09-15T11:36:00.762Z,2.78
2022-09-15T11:38:48.904Z,2.40
2022-09-15T11:41:24.669Z,1.80
2022-09-15T11:44:12.454Z,1.60
2022-09-15T11:46:48.744Z,1.85
2022-09-15T11:49:24.022Z,1.75
2022-09-15T11:51:54.732Z,2.63
2022-09-15T11:54:26.038Z,2.50
2022-09-15T11:56:53.874Z,2.33
2022-09-15T11:59:20.423Z,2.20
2022-09-15T12:01:52.508Z,1.80
2022-09-15T12:04:28.491Z,1.88
2022-09-15T12:07:02.336Z,2.03
2022-09-15T12:09:29.508Z,2.00
2022-09-15T12:12:06.057Z,1.95
2022-09-15T12:14:35.042Z,1.88
2022-09-15T12:17:03.554Z,1.88
2022-09-15T12:19:33.667Z,2.05
2022-09-15T12:22:06.547Z,1.95
2022-09-15T12:24:36.324Z,1.52
2022-09-15T12:27:03.251Z,1.52
2022-09-15T12:29:31.730Z,1.90
2022-09-15T12:32:18.017Z,2.03
2022-09-15T12:34:58.631Z,2.20
2022-09-15T12:37:26.696Z,2.28
2022-09-15T12:39:54.263Z,1.92
2022-09-15T12:42:31.577Z,1.40
2022-09-15T12:45:02.769Z,1.80
2022-09-15T12:47:35.278Z,1.73
2022-09-15T12:50:20.352Z,1.63
2022-09-15T12:53:03.855Z,1.45
2022-09-15T12:55:33.828Z,1.50
2022-09-15T12:58:02.145Z,1.70
2022-09-15T13:00:36.223Z,1.60
2022-09-15T13:03:03.778Z,1.67
2022-09-15T13:05:42.675Z,1.83
2022-09-15T13:08:15.446Z,1.88
2022-09-15T13:10:43.658Z,2.00
2022-09-15T13:13:14.241Z,2.13
2022-09-15T13:15:43.186Z,1.75
2022-09-15T13:18:10.336Z,1.75
2022-09-15T13:20:38.661Z,1.48
2022-09-15T13:23:07.503Z,1.40
2022-09-15T13:25:34.722Z,1.40
2022-09-15T13:28:02.660Z,1.50
2022-09-15T13:30:47.817Z,1.30
2022-09-15T13:39:30.901Z,0.98
2022-09-15T13:42:03.409Z,1.10
2022-09-15T13:44:29.998Z,1.30
2022-09-15T13:46:56.602Z,1.00
2022-09-15T13:49:32.904Z,1.15
2022-09-15T13:52:02.946Z,1.30
2022-09-15T13:54:30.317Z,1.02
2022-09-15T13:56:59.392Z,1.00
2022-09-15T13:59:28.482Z,1.02
2022-09-15T14:01:55.550Z,0.90
2022-09-15T14:04:24.490Z,0.85
2022-09-15T14:06:55.919Z,0.80
2022-09-15T14:09:27.306Z,0.93
2022-09-15T14:11:56.028Z,0.93
2022-09-15T14:14:32.085Z,0.52
2022-09-15T14:16:58.890Z,0.98
2022-09-15T14:19:35.998Z,0.90
2022-09-15T14:22:17.987Z,0.82
2022-09-15T14:24:44.957Z,1.00
2022-09-15T14:27:12.965Z,0.93
2022-09-15T14:29:40.742Z,1.25
2022-09-15T14:32:11.050Z,0.70
2022-09-15T14:34:38.609Z,1.08
2022-09-15T14:37:06.800Z,0.98
2022-09-15T14:39:37.863Z,0.88
2022-09-15T14:42:20.243Z,0.80
2022-09-15T14:47:34.905Z,1.00
2022-09-15T14:50:17.997Z,0.82
2022-09-15T14:52:48.429Z,0.90
2022-09-15T14:55:21.065Z,1.10
2022-09-15T14:57:52.338Z,0.95
2022-09-15T15:00:22.599Z,1.00
2022-09-15T15:02:55.637Z,0.93
2022-09-15T15:05:33.482Z,0.90
2022-09-15T15:08:01.793Z,1.08
2022-09-15T15:10:34.886Z,1.33
2022-09-15T15:13:06.125Z,0.85
2022-09-15T15:15:33.445Z,0.88
2022-09-15T15:18:00.889Z,1.08
2022-09-15T15:20:30.456Z,1.20
2022-09-15T15:23:23.709Z,0.90
2022-09-15T15:25:50.641Z,0.93
2022-09-15T15:28:29.247Z,1.10
2022-09-15T15:31:06.250Z,1.00
2022-09-15T15:33:32.984Z,1.23
2022-09-15T15:36:07.404Z,1.13
2022-09-15T15:38:40.342Z,1.20
2022-09-15T15:41:15.061Z,0.80
2022-09-15T15:43:54.091Z,1.10
2022-09-15T15:46:40.533Z,0.90
2022-09-15T15:49:11.041Z,0.85
2022-09-15T15:51:37.711Z,1.10
2022-09-15T15:54:04.442Z,0.98
2022-09-15T15:56:34.622Z,0.95
2022-09-15T15:59:03.926Z,1.00
2022-09-15T16:01:31.295Z,0.90
2022-09-15T16:03:57.957Z,1.20
2022-09-15T16:06:24.752Z,1.27
2022-09-15T16:08:52.840Z,0.98
2022-09-15T16:11:21.012Z,1.25
2022-09-15T16:13:48.615Z,0.88
2022-09-15T16:16:17.014Z,1.00
2022-09-15T16:18:43.673Z,0.75
2022-09-15T16:21:16.504Z,1.00
2022-09-15T16:23:43.457Z,0.80
2022-09-15T16:26:11.470Z,0.82
2022-09-15T16:28:38.199Z,1.00
2022-09-15T16:31:04.913Z,0.80
2022-09-15T16:33:35.923Z,0.65
2022-09-15T16:36:07.218Z,0.80
2022-09-15T16:38:34.989Z,0.90
2022-09-15T16:41:02.271Z,0.80
2022-09-15T16:43:28.891Z,0.70
2022-09-15T16:45:55.447Z,0.90
2022-09-15T16:48:22.091Z,0.88
2022-09-15T16:51:16.892Z,0.80
2022-09-15T16:53:38.568Z,0.68
2022-09-15T16:56:06.428Z,0.70
2022-09-15T16:58:33.160Z,0.80
2022-09-15T17:01:00.197Z,0.80
2022-09-15T17:03:27.190Z,0.85
2022-09-15T17:05:55.384Z,0.80
2022-09-15T17:08:23.829Z,0.88
2022-09-15T17:10:50.763Z,0.80
2022-09-15T17:13:18.798Z,0.85
2022-09-15T17:15:46.203Z,0.65
2022-09-15T17:18:16.593Z,0.80
2022-09-15T17:20:44.077Z,0.70
2022-09-15T17:23:17.132Z,0.80
2022-09-15T17:25:49.176Z,0.90
2022-09-15T17:28:15.864Z,0.70
2022-09-15T17:30:42.865Z,0.68
2022-09-15T17:33:12.477Z,0.70
2022-09-15T17:35:39.090Z,0.90
2022-09-15T17:38:06.277Z,0.88
2022-09-15T17:40:33.440Z,0.85
2022-09-15T17:43:00.988Z,1.10
2022-09-15T17:45:34.719Z,0.75
2022-09-15T17:48:01.870Z,1.20
2022-09-15T17:50:29.657Z,0.90
2022-09-15T17:52:56.633Z,0.90
2022-09-15T17:55:27.294Z,0.77
2022-09-15T17:57:54.752Z,0.90
2022-09-15T18:00:22.538Z,1.00
2022-09-15T18:02:53.487Z,0.73
2022-09-15T18:05:22.097Z,0.90
2022-09-15T18:07:49.326Z,0.88
2022-09-15T18:10:16.064Z,0.70
2022-09-15T18:12:46.846Z,0.80
2022-09-15T18:15:17.149Z,0.90
2022-09-15T18:17:43.881Z,0.80
2022-09-15T18:20:14.786Z,1.00
2022-09-15T18:22:42.424Z,0.80
2022-09-15T18:25:14.756Z,0.90
2022-09-15T18:27:42.625Z,0.93
2022-09-15T18:30:09.735Z,0.85
2022-09-15T18:32:36.317Z,0.88
2022-09-15T18:35:02.979Z,1.00
2022-09-15T18:37:29.755Z,1.00
2022-09-15T18:39:56.391Z,1.15
2022-09-15T18:42:23.120Z,0.88
2022-09-15T18:44:49.745Z,0.88
2022-09-15T18:47:16.435Z,0.95
2022-09-15T18:49:42.995Z,1.08
2022-09-15T18:52:09.634Z,1.10
2022-09-15T18:54:36.586Z,1.00
2022-09-15T18:57:03.175Z,0.90
2022-09-15T18:59:29.799Z,0.98
2022-09-15T19:01:56.381Z,0.90
2022-09-15T19:04:23.075Z,0.90
2022-09-15T19:06:49.659Z,0.93
2022-09-15T19:09:16.229Z,1.05
2022-09-15T19:11:42.757Z,1.20
2022-09-15T19:14:09.375Z,0.88
2022-09-15T19:16:56.659Z,0.98
2022-09-15T19:19:23.161Z,0.90
2022-09-15T19:21:50.195Z,0.90
2022-09-15T19:24:17.186Z,1.13
2022-09-15T19:26:44.460Z,0.80
2022-09-15T19:29:11.251Z,0.82
2022-09-15T19:31:41.783Z,1.10
2022-09-15T19:34:09.104Z,1.13
2022-09-15T19:36:35.891Z,1.02
2022-09-15T19:39:03.706Z,1.05
2022-09-15T19:41:30.845Z,0.90
2022-09-15T19:43:57.716Z,0.85
2022-09-15T19:46:25.061Z,0.95
2022-09-15T19:48:52.453Z,1.20
2022-09-15T19:51:19.565Z,1.00
2022-09-15T19:53:46.586Z,1.10
2022-09-15T19:56:17.084Z,1.05
2022-09-15T19:58:44.232Z,1.10
2022-09-15T20:01:11.072Z,0.77
2022-09-15T20:03:37.912Z,0.85
2022-09-15T20:06:05.632Z,0.68
2022-09-15T20:08:32.361Z,1.23
2022-09-15T20:10:59.056Z,0.80
2022-09-15T20:13:25.667Z,0.90
2022-09-15T20:15:56.779Z,0.80
2022-09-15T20:18:23.657Z,0.90
2022-09-15T20:20:50.265Z,0.95
2022-09-15T20:23:17.068Z,0.90
2022-09-15T20:25:43.675Z,0.90
2022-09-15T20:28:10.298Z,0.90
2022-09-15T20:30:36.923Z,0.95
2022-09-15T20:33:03.595Z,0.93
2022-09-15T20:35:30.258Z,0.80
2022-09-15T20:37:56.987Z,1.20
2022-09-15T20:40:23.812Z,1.10
2022-09-15T20:42:50.636Z,1.00
2022-09-15T20:45:18.206Z,0.88
2022-09-15T20:47:44.984Z,0.85
2022-09-15T20:50:12.033Z,1.17
2022-09-15T20:52:38.771Z,1.08
2022-09-15T20:55:05.579Z,1.00
2022-09-15T20:57:32.283Z,1.05
2022-09-15T20:59:59.012Z,1.05
2022-09-15T21:02:25.638Z,1.00
2022-09-15T21:04:52.345Z,0.95
2022-09-15T21:07:18.984Z,0.95
2022-09-15T21:09:45.657Z,0.70
2022-09-15T21:12:12.467Z,1.10
2022-09-15T21:14:39.137Z,1.10
2022-09-15T21:17:06.025Z,1.00
2022-09-15T21:19:32.625Z,0.90
2022-09-15T21:21:59.656Z,0.90
2022-09-15T21:24:26.239Z,0.85
2022-09-15T21:27:11.577Z,1.05
2022-09-15T21:29:38.177Z,1.00
2022-09-15T21:32:05.001Z,0.90
2022-09-15T21:34:31.860Z,1.20
2022-09-15T21:36:59.319Z,1.10
2022-09-15T21:39:26.068Z,1.02
2022-09-15T21:41:52.776Z,0.98
2022-09-15T21:44:19.435Z,0.90
2022-09-15T21:46:47.499Z,1.10
2022-09-15T21:49:14.274Z,1.15
2022-09-15T21:51:41.044Z,1.25
2022-09-15T21:54:07.665Z,1.00
2022-09-15T21:56:34.266Z,1.50
2022-09-15T21:59:02.425Z,1.13
2022-09-15T22:01:30.129Z,1.45
2022-09-15T22:04:01.024Z,1.02
2022-09-15T22:06:32.132Z,1.05
2022-09-15T22:09:03.464Z,1.50
2022-09-15T22:11:30.192Z,1.42
2022-09-15T22:13:56.954Z,1.40
2022-09-15T22:16:24.343Z,1.20
2022-09-15T22:18:51.577Z,1.52
2022-09-15T22:21:22.704Z,1.35
2022-09-15T22:23:49.939Z,1.58
2022-09-15T22:26:18.171Z,1.42
2022-09-15T22:28:45.380Z,1.50
2022-09-15T22:31:12.862Z,1.50
2022-09-15T22:33:42.912Z,1.30
2022-09-15T22:36:13.578Z,1.50
2022-09-15T22:38:40.340Z,1.30
2022-09-15T22:41:09.348Z,1.38
2022-09-15T22:43:36.875Z,1.40
2022-09-15T22:46:04.011Z,1.40
2022-09-15T22:48:30.786Z,1.48
2022-09-15T22:50:57.620Z,1.60
2022-09-15T22:53:24.459Z,1.83
2022-09-15T22:55:51.625Z,1.35
2022-09-15T22:58:18.264Z,1.45
2022-09-15T23:00:45.027Z,1.55
2022-09-15T23:03:11.700Z,1.50
2022-09-15T23:05:38.588Z,1.40
2022-09-15T23:08:05.477Z,1.50
2022-09-15T23:10:33.475Z,1.30
2022-09-15T23:13:00.236Z,1.42
2022-09-15T23:15:27.431Z,1.77
2022-09-15T23:17:54.697Z,1.70
2022-09-15T23:20:21.731Z,1.42
2022-09-15T23:22:48.397Z,1.67
2022-09-15T23:25:15.117Z,1.50
2022-09-15T23:27:41.802Z,1.50
2022-09-15T23:30:08.719Z,1.52
2022-09-15T23:32:35.370Z,1.80
2022-09-15T23:35:02.139Z,1.77
2022-09-15T23:37:28.884Z,1.42
2022-09-15T23:39:55.613Z,2.45
2022-09-15T23:42:22.299Z,1.77
2022-09-15T23:44:48.995Z,1.80
2022-09-15T23:47:15.725Z,1.67
2022-09-15T23:49:42.755Z,1.88
2022-09-15T23:52:09.351Z,1.58
2022-09-15T23:54:36.140Z,1.98
2022-09-15T23:57:02.818Z,1.92
2022-09-15T23:59:29.451Z,1.38
